createdAt,value
2022-10-14T00:00:49.122Z,13.98
2022-10-14T00:01:50.837Z,13.75
2022-10-14T00:02:52.475Z,14.82
2022-10-14T00:03:54.706Z,14.05
2022-10-14T00:04:56.411Z,14.15
2022-10-14T00:05:58.349Z,15.93
2022-10-14T00:06:59.980Z,15.75
2022-10-14T00:08:01.721Z,15.48
2022-10-14T00:09:06.635Z,15.82
2022-10-14T00:10:08.329Z,17.00
2022-10-14T00:11:13.463Z,16.73
2022-10-14T00:12:15.163Z,16.67
2022-10-14T00:13:16.928Z,15.60
2022-10-14T00:14:20.915Z,16.20
2022-10-14T00:15:22.514Z,16.55
2022-10-14T00:16:29.610Z,16.65
2022-10-14T00:17:31.334Z,16.63
2022-10-14T00:18:33.312Z,15.70
2022-10-14T00:19:34.913Z,15.70
2022-10-14T00:20:36.587Z,16.35
2022-10-14T00:21:41.375Z,17.17
2022-10-14T00:22:43.040Z,16.75
2022-10-14T00:23:46.208Z,15.68
2022-10-14T00:24:47.775Z,17.20
2022-10-14T00:25:49.425Z,16.17
2022-10-14T00:26:51.079Z,17.60
2022-10-14T00:27:52.916Z,17.15
2022-10-14T00:28:55.790Z,17.48
2022-10-14T00:29:57.400Z,18.05
2022-10-14T00:31:00.900Z,15.90
2022-10-14T00:32:02.547Z,17.20
2022-10-14T00:33:04.264Z,17.88
2022-10-14T00:34:06.056Z,17.65
2022-10-14T00:35:08.020Z,17.08
2022-10-14T00:36:13.966Z,18.17
2022-10-14T00:37:15.578Z,15.98
2022-10-14T00:38:17.205Z,17.10
2022-10-14T00:39:19.248Z,16.08
2022-10-14T00:40:20.853Z,16.88
2022-10-14T00:41:28.586Z,16.50
2022-10-14T00:42:34.077Z,16.17
2022-10-14T00:43:58.597Z,16.20
2022-10-14T00:45:07.393Z,16.90
2022-10-14T00:46:11.580Z,16.02
2022-10-14T00:47:13.221Z,17.15
2022-10-14T00:48:16.452Z,15.68
2022-10-14T00:49:30.933Z,17.17
2022-10-14T00:50:33.507Z,16.75
2022-10-14T00:51:36.835Z,16.25
2022-10-14T00:52:38.798Z,15.73
2022-10-14T00:53:43.175Z,15.93
2022-10-14T00:54:55.211Z,14.27
2022-10-14T00:55:56.808Z,16.33
2022-10-14T00:56:58.765Z,15.95
2022-10-14T00:58:00.835Z,15.52
2022-10-14T00:59:04.243Z,15.88
2022-10-14T01:00:10.209Z,15.43
2022-10-14T01:01:11.902Z,16.20
2022-10-14T01:02:13.767Z,15.43
2022-10-14T01:03:21.245Z,16.85
2022-10-14T01:04:23.074Z,15.88
2022-10-14T01:05:32.328Z,15.77
2022-10-14T01:07:10.255Z,15.80
2022-10-14T01:08:24.977Z,14.95
2022-10-14T01:09:35.519Z,15.15
2022-10-14T01:10:43.167Z,15.52
2022-10-14T01:12:29.619Z,16.30
2022-10-14T01:13:40.093Z,15.50
2022-10-14T01:15:28.961Z,15.35
2022-10-14T01:16:46.500Z,15.57
2022-10-14T01:18:05.366Z,15.90
2022-10-14T01:19:28.593Z,15.07
2022-10-14T01:21:01.536Z,16.20
2022-10-14T01:22:22.830Z,15.73
2022-10-14T01:23:42.985Z,15.50
2022-10-14T01:25:20.302Z,16.73
2022-10-14T01:26:48.056Z,16.45
2022-10-14T01:28:20.473Z,17.30
2022-10-14T01:29:45.395Z,15.10
2022-10-14T01:31:00.048Z,16.70
2022-10-14T01:32:13.928Z,16.48
2022-10-14T01:33:26.498Z,17.15
2022-10-14T01:34:36.806Z,16.20
2022-10-14T01:36:18.466Z,16.40
2022-10-14T01:37:26.561Z,15.95
2022-10-14T01:38:36.028Z,16.05
2022-10-14T01:39:42.844Z,16.92
2022-10-14T01:40:55.056Z,17.10
2022-10-14T01:42:01.595Z,17.02
2022-10-14T01:43:05.724Z,16.65
2022-10-14T01:44:14.022Z,17.30
2022-10-14T01:45:19.971Z,16.15
2022-10-14T01:46:25.221Z,16.90
2022-10-14T01:47:30.564Z,17.50
2022-10-14T01:48:38.767Z,17.65
2022-10-14T01:49:47.208Z,16.40
2022-10-14T01:50:51.990Z,17.63
2022-10-14T01:52:02.081Z,17.10
2022-10-14T01:53:09.071Z,17.42
2022-10-14T01:54:15.004Z,17.50
2022-10-14T01:55:23.293Z,17.48
2022-10-14T01:56:28.506Z,15.65
2022-10-14T01:57:33.751Z,17.55
2022-10-14T01:58:37.625Z,17.17
2022-10-14T01:59:41.100Z,17.83
2022-10-14T02:00:42.818Z,16.42
2022-10-14T02:01:44.963Z,16.60
2022-10-14T02:02:46.827Z,16.15
2022-10-14T02:03:48.532Z,18.08
2022-10-14T02:04:50.486Z,18.42
2022-10-14T02:06:00.773Z,17.50
2022-10-14T02:07:12.407Z,17.40
2022-10-14T02:08:33.215Z,16.85
2022-10-14T02:09:56.445Z,17.65
2022-10-14T02:11:09.886Z,15.93
2022-10-14T02:12:36.166Z,17.55
2022-10-14T02:13:51.700Z,17.55
2022-10-14T02:14:58.899Z,16.55
2022-10-14T02:16:18.605Z,17.95
2022-10-14T02:17:34.359Z,17.08
2022-10-14T02:18:51.188Z,17.35
2022-10-14T02:20:08.638Z,18.15
2022-10-14T02:21:39.543Z,16.80
2022-10-14T02:22:46.420Z,16.63
2022-10-14T02:24:02.248Z,17.05
2022-10-14T02:25:40.819Z,16.25
2022-10-14T02:26:43.688Z,18.20
2022-10-14T02:27:46.644Z,16.20
2022-10-14T02:28:50.113Z,18.10
2022-10-14T02:29:53.548Z,17.15
2022-10-14T02:31:01.831Z,16.95
2022-10-14T02:32:06.588Z,17.85
2022-10-14T02:33:08.656Z,18.63
2022-10-14T02:34:14.530Z,17.70
2022-10-14T02:35:19.170Z,18.58
2022-10-14T02:36:23.712Z,17.50
2022-10-14T02:37:27.121Z,18.25
2022-10-14T02:38:30.378Z,19.20
2022-10-14T02:39:37.315Z,18.80
2022-10-14T02:40:45.939Z,18.77
2022-10-14T02:41:47.657Z,17.85
2022-10-14T02:42:49.396Z,16.95
2022-10-14T02:43:51.334Z,18.90
2022-10-14T02:44:54.110Z,17.77
2022-10-14T02:46:00.321Z,17.75
2022-10-14T02:47:02.013Z,18.08
2022-10-14T02:48:04.409Z,17.60
2022-10-14T02:49:06.003Z,18.27
2022-10-14T02:50:09.230Z,17.73
2022-10-14T02:51:10.877Z,18.50
2022-10-14T02:52:12.601Z,17.33
2022-10-14T02:53:16.079Z,17.25
2022-10-14T02:54:17.675Z,18.13
2022-10-14T02:55:19.277Z,18.35
2022-10-14T02:56:20.873Z,17.98
2022-10-14T02:57:22.524Z,17.13
2022-10-14T02:58:24.221Z,17.45
2022-10-14T02:59:25.856Z,17.50
2022-10-14T03:00:27.692Z,17.23
2022-10-14T03:01:31.630Z,17.27
2022-10-14T03:02:36.908Z,17.30
2022-10-14T03:03:38.522Z,17.38
2022-10-14T03:04:40.139Z,17.20
2022-10-14T03:05:42.929Z,16.17
2022-10-14T03:06:44.520Z,16.92
2022-10-14T03:07:46.109Z,16.85
2022-10-14T03:08:47.707Z,16.35
2022-10-14T03:09:49.392Z,16.67
2022-10-14T03:10:51.032Z,16.52
2022-10-14T03:11:52.619Z,16.17
2022-10-14T03:12:54.316Z,17.67
2022-10-14T03:13:55.925Z,17.23
2022-10-14T03:14:57.511Z,18.40
2022-10-14T03:15:59.173Z,16.80
2022-10-14T03:17:00.764Z,17.30
2022-10-14T03:18:02.343Z,18.25
2022-10-14T03:19:04.022Z,18.00
2022-10-14T03:20:06.568Z,17.20
2022-10-14T03:21:08.161Z,17.30
2022-10-14T03:22:10.021Z,16.58
2022-10-14T03:23:12.282Z,16.75
2022-10-14T03:24:13.912Z,15.88
2022-10-14T03:25:16.286Z,17.35
2022-10-14T03:26:17.958Z,16.52
2022-10-14T03:27:19.583Z,16.90
2022-10-14T03:28:21.177Z,16.15
2022-10-14T03:29:22.804Z,16.08
2022-10-14T03:30:24.417Z,17.60
2022-10-14T03:31:26.051Z,16.73
2022-10-14T03:32:27.673Z,16.00
2022-10-14T03:33:31.934Z,16.55
2022-10-14T03:34:35.495Z,16.63
2022-10-14T03:35:37.076Z,17.85
2022-10-14T03:36:38.665Z,15.80
2022-10-14T03:37:40.333Z,15.48
2022-10-14T03:38:42.032Z,16.70
2022-10-14T03:39:44.705Z,16.98
2022-10-14T03:40:46.300Z,17.88
2022-10-14T03:41:48.512Z,16.40
2022-10-14T03:42:50.082Z,16.08
2022-10-14T03:43:51.822Z,17.27
2022-10-14T03:44:53.625Z,17.27
2022-10-14T03:45:55.586Z,15.90
2022-10-14T03:46:57.349Z,16.50
2022-10-14T03:47:58.934Z,16.45
2022-10-14T03:49:00.516Z,17.13
2022-10-14T03:50:03.032Z,17.05
2022-10-14T03:51:04.655Z,16.40
2022-10-14T03:52:06.231Z,17.67
2022-10-14T03:53:07.975Z,16.85
2022-10-14T03:54:09.577Z,16.48
2022-10-14T03:55:11.269Z,16.42
2022-10-14T03:56:12.902Z,16.98
2022-10-14T03:57:14.479Z,15.52
2022-10-14T03:58:16.148Z,16.52
2022-10-14T03:59:17.785Z,16.98
2022-10-14T04:00:19.821Z,16.45
2022-10-14T04:01:21.466Z,16.00
2022-10-14T04:02:23.520Z,15.52
2022-10-14T04:03:25.355Z,16.15
2022-10-14T04:04:26.944Z,15.63
2022-10-14T04:05:33.851Z,15.55
2022-10-14T04:06:35.565Z,15.70
2022-10-14T04:07:37.240Z,16.67
2022-10-14T04:08:38.853Z,16.45
2022-10-14T04:09:40.533Z,14.50
2022-10-14T04:10:42.149Z,16.00
2022-10-14T04:11:43.750Z,16.13
2022-10-14T04:12:45.583Z,14.43
2022-10-14T04:13:47.206Z,16.48
2022-10-14T04:14:48.799Z,15.68
2022-10-14T04:15:50.452Z,15.85
2022-10-14T04:16:52.210Z,14.90
2022-10-14T04:17:53.832Z,14.80
2022-10-14T04:18:55.467Z,14.73
2022-10-14T04:19:57.082Z,14.75
2022-10-14T04:21:06.771Z,13.93
2022-10-14T04:22:08.617Z,14.88
2022-10-14T04:23:10.288Z,15.38
2022-10-14T04:24:12.685Z,14.48
2022-10-14T04:25:14.368Z,14.63
2022-10-14T04:26:16.032Z,15.13
2022-10-14T04:27:18.322Z,13.65
2022-10-14T04:28:19.934Z,14.30
2022-10-14T04:29:21.580Z,13.35
2022-10-14T04:30:23.391Z,13.45
2022-10-14T04:31:25.088Z,14.80
2022-10-14T04:32:26.824Z,13.88
2022-10-14T04:33:28.891Z,14.82
2022-10-14T04:34:30.476Z,14.20
2022-10-14T04:35:32.151Z,13.10
2022-10-14T04:36:33.816Z,13.00
2022-10-14T04:37:35.452Z,13.02
2022-10-14T04:38:37.109Z,12.88
2022-10-14T04:39:38.703Z,13.30
2022-10-14T04:40:40.349Z,13.43
2022-10-14T04:41:42.420Z,14.60
2022-10-14T04:42:44.050Z,13.50
2022-10-14T04:43:45.642Z,13.77
2022-10-14T04:44:47.232Z,12.13
2022-10-14T04:45:49.153Z,13.55
2022-10-14T04:46:50.932Z,13.02
2022-10-14T04:47:52.556Z,12.80
2022-10-14T04:48:54.165Z,12.40
2022-10-14T04:49:55.775Z,12.38
2022-10-14T04:50:57.482Z,12.10
2022-10-14T04:51:59.150Z,12.77
2022-10-14T04:53:00.788Z,12.82
2022-10-14T04:54:02.384Z,13.48
2022-10-14T04:55:04.389Z,12.63
2022-10-14T04:56:06.250Z,12.55
2022-10-14T04:57:08.023Z,12.45
2022-10-14T04:58:09.660Z,11.57
2022-10-14T04:59:11.880Z,12.30
2022-10-14T05:00:14.629Z,12.38
2022-10-14T05:01:17.575Z,11.63
2022-10-14T05:02:19.754Z,11.73
2022-10-14T05:03:21.715Z,12.88
2022-10-14T05:04:23.336Z,11.70
2022-10-14T05:05:24.918Z,11.85
2022-10-14T05:06:26.509Z,10.85
2022-10-14T05:07:28.158Z,13.40
2022-10-14T05:08:29.769Z,12.40
2022-10-14T05:09:31.351Z,13.60
2022-10-14T05:10:33.484Z,13.93
2022-10-14T05:11:35.349Z,12.73
2022-10-14T05:12:38.786Z,13.48
2022-10-14T05:13:40.385Z,12.60
2022-10-14T05:14:42.532Z,11.93
2022-10-14T05:15:44.097Z,11.70
2022-10-14T05:16:45.688Z,10.57
2022-10-14T05:17:47.733Z,12.30
2022-10-14T05:18:49.423Z,13.48
2022-10-14T05:19:51.025Z,13.32
2022-10-14T05:20:52.708Z,10.30
2022-10-14T05:21:54.455Z,10.35
2022-10-14T05:22:56.198Z,10.00
2022-10-14T05:23:57.807Z,11.15
2022-10-14T05:24:59.385Z,10.35
2022-10-14T05:26:01.003Z,10.68
2022-10-14T05:27:02.956Z,11.80
2022-10-14T05:28:04.731Z,9.57
2022-10-14T05:29:06.394Z,10.93
2022-10-14T05:30:08.683Z,11.23
2022-10-14T05:31:10.774Z,10.52
2022-10-14T05:32:12.499Z,11.20
2022-10-14T05:33:14.140Z,10.25
2022-10-14T05:34:15.719Z,11.05
2022-10-14T05:35:29.092Z,10.52
2022-10-14T05:36:39.535Z,10.48
2022-10-14T05:37:41.406Z,10.30
2022-10-14T05:38:43.135Z,10.85
2022-10-14T05:39:44.771Z,11.07
2022-10-14T05:40:54.152Z,10.15
2022-10-14T05:41:55.750Z,10.63
2022-10-14T05:42:57.392Z,13.52
2022-10-14T05:43:59.027Z,10.82
2022-10-14T05:45:00.619Z,11.80
2022-10-14T05:46:02.248Z,11.77
2022-10-14T05:47:03.910Z,13.38
2022-10-14T05:48:05.784Z,14.48
2022-10-14T05:49:07.613Z,12.27
2022-10-14T05:50:09.392Z,12.75
2022-10-14T05:51:10.993Z,8.50
2022-10-14T05:52:12.639Z,9.68
2022-10-14T05:53:14.308Z,10.20
2022-10-14T05:54:16.111Z,9.68
2022-10-14T05:55:17.757Z,9.63
2022-10-14T05:56:19.372Z,11.27
2022-10-14T05:57:20.988Z,10.95
2022-10-14T05:58:22.577Z,9.75
2022-10-14T05:59:24.223Z,10.45
2022-10-14T06:00:26.103Z,10.77
2022-10-14T06:01:27.763Z,10.00
2022-10-14T06:02:30.465Z,9.23
2022-10-14T06:03:32.331Z,9.43
2022-10-14T06:04:33.989Z,10.70
2022-10-14T06:05:36.945Z,9.82
2022-10-14T06:06:38.632Z,10.38
2022-10-14T06:07:40.272Z,9.75
2022-10-14T06:08:42.317Z,9.52
2022-10-14T06:09:44.317Z,8.98
2022-10-14T06:10:46.202Z,10.07
2022-10-14T06:11:48.225Z,9.93
2022-10-14T06:12:49.814Z,10.02
2022-10-14T06:13:52.476Z,9.70
2022-10-14T06:14:54.123Z,11.27
2022-10-14T06:15:55.716Z,9.88
2022-10-14T06:16:57.316Z,9.93
2022-10-14T06:17:58.997Z,10.32
2022-10-14T06:19:00.590Z,9.48
2022-10-14T06:20:03.052Z,10.45
2022-10-14T06:21:05.695Z,8.98
2022-10-14T06:22:07.381Z,10.07
2022-10-14T06:23:09.032Z,9.65
2022-10-14T06:24:11.274Z,9.10
2022-10-14T06:25:13.781Z,10.07
2022-10-14T06:26:15.389Z,10.05
2022-10-14T06:27:16.987Z,10.85
2022-10-14T06:28:19.132Z,10.55
2022-10-14T06:29:20.951Z,12.88
2022-10-14T06:30:22.593Z,12.18
2022-10-14T06:31:27.437Z,11.75
2022-10-14T06:32:31.536Z,12.00
2022-10-14T06:33:33.351Z,11.43
2022-10-14T06:34:34.986Z,10.52
2022-10-14T06:35:36.593Z,11.50
2022-10-14T06:36:38.257Z,12.30
2022-10-14T06:37:39.861Z,14.90
2022-10-14T06:38:41.508Z,23.83
2022-10-14T06:39:44.964Z,22.33
2022-10-14T06:40:46.700Z,29.63
2022-10-14T06:41:48.331Z,20.05
2022-10-14T06:42:50.037Z,13.68
2022-10-14T06:43:51.711Z,14.13
2022-10-14T06:44:53.323Z,11.88
2022-10-14T06:45:57.430Z,12.50
2022-10-14T06:46:58.977Z,12.05
2022-10-14T06:48:00.602Z,12.32
2022-10-14T06:49:02.188Z,12.20
2022-10-14T06:50:04.283Z,11.57
2022-10-14T06:51:06.230Z,12.00
2022-10-14T06:52:09.204Z,11.07
2022-10-14T06:53:10.788Z,12.57
2022-10-14T06:54:12.375Z,12.13
2022-10-14T06:55:14.783Z,13.13
2022-10-14T06:56:17.163Z,12.25
2022-10-14T06:57:18.847Z,12.65
2022-10-14T06:58:20.617Z,11.65
2022-10-14T06:59:25.632Z,10.70
2022-10-14T07:00:28.983Z,10.98
2022-10-14T07:01:50.171Z,10.80
2022-10-14T07:02:53.448Z,11.68
2022-10-14T07:04:00.531Z,11.73
2022-10-14T07:05:02.321Z,11.73
2022-10-14T07:06:05.469Z,11.90
2022-10-14T07:07:10.236Z,11.32
2022-10-14T07:08:15.457Z,10.05
2022-10-14T07:09:18.821Z,10.07
2022-10-14T07:10:23.781Z,9.52
2022-10-14T07:11:26.627Z,9.70
2022-10-14T07:12:29.508Z,10.65
2022-10-14T07:13:32.398Z,9.75
2022-10-14T07:14:35.275Z,9.82
2022-10-14T07:15:39.339Z,11.38
2022-10-14T07:16:44.747Z,9.93
2022-10-14T07:17:47.769Z,9.70
2022-10-14T07:18:50.300Z,8.63
2022-10-14T07:19:53.123Z,8.57
2022-10-14T07:20:55.876Z,8.55
2022-10-14T07:21:58.453Z,9.10
2022-10-14T07:23:01.406Z,8.27
2022-10-14T07:36:40.693Z,8.68
2022-10-14T07:44:47.599Z,9.90
2022-10-14T07:45:50.946Z,10.65
2022-10-14T07:46:07.082Z,12.23
2022-10-14T07:46:55.173Z,8.75
2022-10-14T07:48:06.287Z,7.65
2022-10-14T07:49:19.594Z,9.10
2022-10-14T07:50:24.093Z,9.15
2022-10-14T07:51:27.775Z,7.85
2022-10-14T07:52:36.805Z,8.48
2022-10-14T07:53:43.441Z,8.40
2022-10-14T07:54:46.317Z,7.53
2022-10-14T07:55:56.866Z,8.82
2022-10-14T07:57:01.353Z,8.18
2022-10-14T07:58:04.899Z,7.05
2022-10-14T07:59:06.688Z,9.43
2022-10-14T08:00:09.160Z,8.40
2022-10-14T08:01:11.004Z,8.23
2022-10-14T08:02:12.999Z,8.07
2022-10-14T08:03:14.865Z,7.95
2022-10-14T08:04:17.016Z,8.52
2022-10-14T08:05:37.030Z,8.30
2022-10-14T08:06:39.037Z,8.57
2022-10-14T08:07:40.633Z,8.88
2022-10-14T08:08:43.941Z,7.95
2022-10-14T08:09:45.586Z,8.20
2022-10-14T08:10:47.161Z,8.00
2022-10-14T08:11:48.944Z,8.10
2022-10-14T08:12:53.111Z,7.00
2022-10-14T08:13:55.561Z,7.47
2022-10-14T08:14:57.950Z,8.82
2022-10-14T08:16:02.620Z,8.65
2022-10-14T08:17:05.919Z,8.27
2022-10-14T08:18:15.972Z,7.90
2022-10-14T08:19:17.734Z,7.55
2022-10-14T08:20:19.352Z,8.05
2022-10-14T08:21:21.478Z,7.10
2022-10-14T08:22:25.104Z,7.22
2022-10-14T08:23:27.242Z,7.10
2022-10-14T08:24:33.036Z,6.60
2022-10-14T08:25:36.372Z,8.30
2022-10-14T08:26:50.465Z,7.97
2022-10-14T08:27:54.077Z,7.43
2022-10-14T08:28:55.874Z,8.00
2022-10-14T08:29:57.499Z,7.38
2022-10-14T08:30:59.213Z,7.30
2022-10-14T08:32:00.826Z,6.57
2022-10-14T08:33:02.432Z,7.28
2022-10-14T08:34:04.304Z,6.75
2022-10-14T08:35:06.474Z,7.17
2022-10-14T08:36:08.522Z,7.05
2022-10-14T08:37:11.715Z,6.20
2022-10-14T08:38:13.358Z,6.82
2022-10-14T08:39:21.088Z,6.43
2022-10-14T08:40:25.894Z,6.67
2022-10-14T08:42:04.446Z,6.70
2022-10-14T08:43:21.078Z,7.10
2022-10-14T08:44:27.133Z,6.38
2022-10-14T08:45:42.519Z,6.70
2022-10-14T08:47:02.047Z,6.43
2022-10-14T08:48:11.493Z,6.97
2022-10-14T08:49:43.579Z,6.70
2022-10-14T08:50:59.355Z,5.63
2022-10-14T08:52:13.989Z,6.63
2022-10-14T08:53:22.352Z,6.30
2022-10-14T08:54:36.883Z,7.05
2022-10-14T08:55:46.739Z,7.10
2022-10-14T08:56:48.498Z,6.80
2022-10-14T08:57:57.634Z,6.30
2022-10-14T08:59:05.001Z,5.40
2022-10-14T09:00:10.355Z,6.40
2022-10-14T09:01:34.943Z,5.57
2022-10-14T09:02:45.722Z,6.37
2022-10-14T09:03:47.487Z,6.20
2022-10-14T09:04:49.433Z,6.05
2022-10-14T09:06:05.138Z,6.70
2022-10-14T09:07:07.007Z,5.90
2022-10-14T09:08:14.809Z,6.20
2022-10-14T09:09:38.423Z,7.20
2022-10-14T09:11:32.039Z,5.70
2022-10-14T09:12:36.812Z,6.00
2022-10-14T09:13:40.943Z,6.33
2022-10-14T09:15:26.713Z,5.93
2022-10-14T09:16:35.968Z,5.93
2022-10-14T09:17:51.371Z,5.87
2022-10-14T09:19:02.570Z,5.83
2022-10-14T09:20:16.852Z,5.40
2022-10-14T09:21:34.037Z,6.07
2022-10-14T09:22:42.819Z,5.50
2022-10-14T09:23:44.754Z,5.20
2022-10-14T09:24:48.481Z,5.30
2022-10-14T09:25:58.416Z,5.00
2022-10-14T09:27:04.605Z,5.43
2022-10-14T09:28:06.226Z,5.30
2022-10-14T09:29:22.752Z,5.40
2022-10-14T09:30:27.928Z,5.40
2022-10-14T09:31:30.203Z,5.13
2022-10-14T09:32:43.919Z,5.27
2022-10-14T09:33:45.943Z,5.20
2022-10-14T09:34:54.858Z,4.60
2022-10-14T09:36:00.741Z,5.70
2022-10-14T09:37:25.855Z,4.60
2022-10-14T09:38:27.936Z,5.10
2022-10-14T09:39:31.326Z,5.80
2022-10-14T09:40:36.895Z,5.33
2022-10-14T09:41:42.134Z,4.53
2022-10-14T09:43:10.508Z,5.63
2022-10-14T09:44:25.704Z,4.37
2022-10-14T09:45:30.886Z,4.80
2022-10-14T09:46:32.514Z,4.80
2022-10-14T09:47:44.541Z,4.90
2022-10-14T09:48:51.127Z,4.73
2022-10-14T09:49:53.176Z,4.00
2022-10-14T09:50:57.569Z,3.73
2022-10-14T09:51:59.361Z,3.73
2022-10-14T09:53:06.098Z,3.63
2022-10-14T09:54:23.083Z,3.80
2022-10-14T09:55:24.820Z,3.50
2022-10-14T09:56:31.989Z,3.90
2022-10-14T09:57:33.684Z,3.37
2022-10-14T09:58:57.260Z,4.20
2022-10-14T10:00:01.803Z,4.37
2022-10-14T10:01:04.266Z,3.73
2022-10-14T10:02:16.840Z,4.90
2022-10-14T10:03:33.656Z,4.23
2022-10-14T10:04:36.929Z,3.60
2022-10-14T10:05:38.645Z,3.60
2022-10-14T10:06:53.211Z,2.80
2022-10-14T10:08:05.720Z,3.10
2022-10-14T10:09:18.526Z,2.67
2022-10-14T10:10:22.062Z,3.77
2022-10-14T10:11:37.760Z,3.27
2022-10-14T10:12:46.083Z,3.53
2022-10-14T10:13:48.153Z,3.63
2022-10-14T10:15:04.812Z,3.17
2022-10-14T10:16:17.058Z,2.17
2022-10-14T10:17:19.271Z,3.23
2022-10-14T10:18:24.385Z,1.73
2022-10-14T10:19:27.337Z,2.00
2022-10-14T10:20:33.846Z,1.60
2022-10-14T10:21:36.765Z,1.70
2022-10-14T10:22:38.897Z,2.00
2022-10-14T10:23:51.658Z,1.70
2022-10-14T10:25:13.794Z,1.70
2022-10-14T10:26:25.776Z,1.47
2022-10-14T10:27:36.579Z,1.60
2022-10-14T10:28:46.080Z,2.00
2022-10-14T10:29:47.784Z,1.90
2022-10-14T10:31:19.571Z,1.97
2022-10-14T10:32:42.611Z,1.67
2022-10-14T10:34:03.264Z,1.90
2022-10-14T10:35:34.241Z,1.90
2022-10-14T10:36:41.425Z,2.03
2022-10-14T10:37:58.088Z,1.53
2022-10-14T10:39:28.424Z,1.53
2022-10-14T10:40:53.571Z,1.70
2022-10-14T10:41:58.493Z,1.47
2022-10-14T10:43:18.575Z,1.80
2022-10-14T10:44:58.787Z,1.53
2022-10-14T10:46:08.789Z,1.80
2022-10-14T10:47:31.740Z,1.97
2022-10-14T10:48:43.473Z,2.00
2022-10-14T10:49:58.722Z,2.00
2022-10-14T10:51:13.619Z,1.60
2022-10-14T10:52:41.009Z,2.20
2022-10-14T10:54:15.102Z,2.00
2022-10-14T10:55:35.279Z,2.10
2022-10-14T10:57:00.420Z,2.00
2022-10-14T10:58:40.810Z,2.07
2022-10-14T11:00:06.285Z,2.00
2022-10-14T11:01:25.958Z,2.30
2022-10-14T11:02:54.806Z,2.33
2022-10-14T11:04:16.881Z,2.17
2022-10-14T11:05:36.103Z,2.13
2022-10-14T11:07:27.144Z,2.03
2022-10-14T11:09:01.572Z,2.17
2022-10-14T11:10:45.708Z,1.70
2022-10-14T11:12:20.638Z,2.17
2022-10-14T11:13:22.517Z,1.90
2022-10-14T11:14:56.292Z,2.77
2022-10-14T11:16:06.962Z,2.27
2022-10-14T11:17:28.718Z,2.50
2022-10-14T11:18:49.467Z,2.50
2022-10-14T11:20:17.597Z,2.57
2022-10-14T11:21:50.240Z,2.40
2022-10-14T11:23:13.739Z,2.70
2022-10-14T11:24:39.734Z,2.60
2022-10-14T11:25:54.231Z,2.67
2022-10-14T11:27:24.891Z,2.50
2022-10-14T11:28:38.317Z,3.07
2022-10-14T11:30:06.531Z,3.17
2022-10-14T11:31:32.447Z,3.30
2022-10-14T11:33:18.607Z,3.43
2022-10-14T11:34:27.561Z,3.67
2022-10-14T11:35:55.030Z,3.67
2022-10-14T11:37:18.089Z,3.10
2022-10-14T11:38:31.427Z,3.50
2022-10-14T11:40:01.641Z,3.50
2022-10-14T11:41:25.870Z,3.00
2022-10-14T11:42:42.921Z,3.00
2022-10-14T11:43:49.552Z,3.40
2022-10-14T11:45:30.671Z,3.13
2022-10-14T11:46:36.894Z,3.20
2022-10-14T11:47:41.825Z,3.90
2022-10-14T11:48:51.375Z,3.53
2022-10-14T11:50:04.945Z,3.17
2022-10-14T11:51:16.598Z,3.03
2022-10-14T11:52:34.170Z,3.93
2022-10-14T11:54:20.477Z,3.57
2022-10-14T11:55:24.505Z,3.90
2022-10-14T11:56:32.933Z,3.90
2022-10-14T11:57:41.674Z,3.40
2022-10-14T11:58:47.218Z,3.60
2022-10-14T12:00:00.691Z,3.27
2022-10-14T12:01:05.068Z,3.10
2022-10-14T12:02:09.709Z,4.07
2022-10-14T12:03:14.473Z,3.73
2022-10-14T12:04:24.615Z,4.50
2022-10-14T12:05:37.798Z,4.13
2022-10-14T12:06:53.125Z,3.60
2022-10-14T12:08:20.370Z,3.23
2022-10-14T12:09:49.302Z,3.10
2022-10-14T12:11:11.932Z,2.90
2022-10-14T12:12:17.447Z,3.00
2022-10-14T12:13:30.240Z,3.47
2022-10-14T12:14:39.335Z,4.93
2022-10-14T12:15:44.985Z,10.63
2022-10-14T12:16:48.777Z,8.50
2022-10-14T12:18:02.296Z,6.60
2022-10-14T12:19:09.002Z,3.40
2022-10-14T12:20:29.218Z,3.70
2022-10-14T12:21:52.688Z,3.10
2022-10-14T12:22:57.924Z,3.40
2022-10-14T12:24:17.354Z,3.67
2022-10-14T12:25:22.373Z,4.23
2022-10-14T12:26:24.305Z,4.87
2022-10-14T12:27:28.693Z,4.60
2022-10-14T12:28:31.192Z,3.40
2022-10-14T12:29:37.109Z,3.63
2022-10-14T12:30:41.265Z,3.73
2022-10-14T12:31:49.712Z,3.57
2022-10-14T12:33:02.943Z,3.20
2022-10-14T12:34:16.768Z,3.47
2022-10-14T12:35:48.651Z,2.87
2022-10-14T12:36:50.446Z,3.23
2022-10-14T12:37:53.111Z,3.03
2022-10-14T12:39:32.596Z,3.50
2022-10-14T12:40:36.891Z,5.37
2022-10-14T12:41:40.759Z,5.17
2022-10-14T12:42:42.392Z,4.80
2022-10-14T12:44:00.004Z,4.53
2022-10-14T12:45:25.638Z,3.53
2022-10-14T12:46:27.623Z,3.97
2022-10-14T12:47:35.353Z,3.73
2022-10-14T12:48:46.122Z,3.20
2022-10-14T12:49:51.905Z,3.33
2022-10-14T12:51:08.911Z,3.93
2022-10-14T12:52:23.111Z,3.13
2022-10-14T12:53:31.039Z,3.90
2022-10-14T12:54:36.062Z,3.50
2022-10-14T12:55:51.187Z,3.47
2022-10-14T12:57:01.156Z,4.10
2022-10-14T12:58:05.836Z,3.53
2022-10-14T12:59:20.827Z,3.63
2022-10-14T13:00:23.079Z,3.50
2022-10-14T13:01:25.433Z,3.40
2022-10-14T13:02:46.173Z,3.50
2022-10-14T13:03:56.465Z,3.87
2022-10-14T13:05:06.038Z,3.40
2022-10-14T13:06:27.827Z,3.10
2022-10-14T13:07:41.054Z,3.50
2022-10-14T13:09:13.314Z,3.70
2022-10-14T13:10:35.871Z,3.50
2022-10-14T13:11:53.832Z,3.60
2022-10-14T13:12:56.133Z,3.77
2022-10-14T13:14:02.389Z,3.13
2022-10-14T13:15:36.322Z,3.60
2022-10-14T13:16:38.215Z,3.17
2022-10-14T13:17:47.420Z,3.70
2022-10-14T13:18:58.349Z,4.00
2022-10-14T13:20:01.294Z,4.77
2022-10-14T13:21:05.394Z,3.87
2022-10-14T13:22:31.626Z,3.50
2022-10-14T13:23:47.965Z,3.60
2022-10-14T13:24:49.663Z,4.33
2022-10-14T13:25:52.802Z,4.50
2022-10-14T13:26:55.118Z,3.60
2022-10-14T13:28:27.910Z,4.23
2022-10-14T13:29:42.385Z,3.73
2022-10-14T13:30:59.659Z,3.53
2022-10-14T13:32:18.819Z,3.67
2022-10-14T13:33:32.153Z,4.03
2022-10-14T13:34:52.041Z,3.43
2022-10-14T13:36:11.103Z,3.40
2022-10-14T13:37:43.306Z,3.50
2022-10-14T13:39:00.462Z,3.27
2022-10-14T13:40:27.330Z,4.30
2022-10-14T13:41:31.632Z,3.77
2022-10-14T13:42:37.772Z,3.50
2022-10-14T13:43:45.338Z,4.10
2022-10-14T13:44:49.122Z,3.57
2022-10-14T13:45:55.219Z,4.10
2022-10-14T13:46:57.205Z,3.97
2022-10-14T13:48:00.163Z,3.90
2022-10-14T13:50:35.489Z,3.60
2022-10-14T13:51:48.659Z,3.33
2022-10-14T13:53:03.900Z,4.30
2022-10-14T13:54:24.269Z,3.73
2022-10-14T13:55:27.029Z,3.70
2022-10-14T13:56:33.794Z,3.10
2022-10-14T13:58:11.557Z,4.20
2022-10-14T13:59:39.333Z,3.00
2022-10-14T14:01:00.195Z,4.90
2022-10-14T14:02:19.143Z,4.30
2022-10-14T14:03:43.493Z,3.27
2022-10-14T14:04:55.064Z,3.30
2022-10-14T14:05:58.177Z,3.03
2022-10-14T14:07:33.209Z,3.60
2022-10-14T14:08:40.868Z,3.47
2022-10-14T14:09:48.933Z,3.03
2022-10-14T14:11:14.991Z,3.33
2022-10-14T14:12:18.176Z,3.60
2022-10-14T14:13:26.333Z,3.30
2022-10-14T14:14:40.368Z,3.17
2022-10-14T14:15:43.500Z,3.13
2022-10-14T14:16:56.194Z,3.57
2022-10-14T14:18:06.534Z,3.03
2022-10-14T14:19:23.096Z,3.13
2022-10-14T14:20:34.234Z,3.50
2022-10-14T14:21:36.151Z,3.80
2022-10-14T14:22:45.580Z,3.30
2022-10-14T14:23:55.346Z,3.27
2022-10-14T14:25:33.058Z,3.80
2022-10-14T14:26:37.159Z,3.73
2022-10-14T14:27:54.679Z,3.80
2022-10-14T14:28:56.590Z,5.60
2022-10-14T14:29:58.754Z,4.70
2022-10-14T14:31:00.469Z,5.53
2022-10-14T14:32:07.204Z,4.20
2022-10-14T14:33:16.813Z,4.20
2022-10-14T14:34:21.211Z,4.10
2022-10-14T14:35:23.115Z,4.47
2022-10-14T14:36:27.699Z,4.20
2022-10-14T14:37:55.608Z,4.50
2022-10-14T14:39:01.429Z,4.43
2022-10-14T14:40:16.434Z,4.60
2022-10-14T14:41:23.913Z,3.93
2022-10-14T14:42:27.927Z,4.20
2022-10-14T14:43:34.753Z,4.43
2022-10-14T14:44:39.131Z,4.80
2022-10-14T14:45:46.670Z,4.37
2022-10-14T14:46:49.743Z,4.60
2022-10-14T14:47:54.512Z,4.17
2022-10-14T14:48:57.917Z,4.47
2022-10-14T14:50:25.553Z,4.30
2022-10-14T14:51:25.565Z,4.77
2022-10-14T14:52:29.145Z,4.43
2022-10-14T14:53:33.633Z,5.20
2022-10-14T14:54:44.978Z,4.57
2022-10-14T14:56:11.861Z,4.40
2022-10-14T14:57:20.088Z,4.40
2022-10-14T14:58:30.111Z,4.23
2022-10-14T14:59:38.011Z,4.17
2022-10-14T15:00:59.153Z,5.03
2022-10-14T15:02:03.028Z,4.47
2022-10-14T15:03:08.815Z,5.07
2022-10-14T15:04:23.707Z,4.63
2022-10-14T15:05:35.435Z,4.80
2022-10-14T15:06:57.677Z,5.33
2022-10-14T15:08:02.067Z,4.60
2022-10-14T15:09:15.306Z,4.70
2022-10-14T15:10:28.535Z,4.90
2022-10-14T15:11:33.835Z,5.00
2022-10-14T15:12:42.033Z,5.10